createdAt,value
2023-06-20T00:00:58.490Z,6.00
2023-06-20T00:03:25.451Z,5.80
2023-06-20T00:05:52.427Z,5.93
2023-06-20T00:08:19.352Z,5.73
2023-06-20T00:10:46.354Z,6.10
2023-06-20T00:13:13.278Z,6.60
2023-06-20T00:15:42.606Z,5.73
2023-06-20T00:18:09.738Z,5.43
2023-06-20T00:20:39.550Z,6.00
2023-06-20T00:23:07.819Z,4.97
2023-06-20T00:25:34.775Z,6.17
2023-06-20T00:28:03.450Z,5.10
2023-06-20T00:30:30.534Z,6.77
2023-06-20T00:32:59.999Z,5.97
2023-06-20T00:35:27.727Z,6.03
2023-06-20T00:37:55.719Z,6.87
2023-06-20T00:40:22.685Z,5.70
2023-06-20T00:42:49.550Z,5.70
2023-06-20T00:45:31.676Z,6.00
2023-06-20T00:48:04.804Z,5.63
2023-06-20T00:50:32.803Z,5.27
2023-06-20T00:53:05.234Z,5.07
2023-06-20T00:55:34.226Z,5.40
2023-06-20T00:58:03.957Z,5.33
2023-06-20T01:00:34.621Z,5.53
2023-06-20T01:03:13.152Z,5.50
2023-06-20T01:05:44.264Z,5.40
2023-06-20T01:08:23.176Z,5.07
2023-06-20T01:11:06.208Z,5.10
2023-06-20T01:14:23.293Z,6.67
2023-06-20T01:17:22.538Z,5.87
2023-06-20T01:20:14.254Z,6.87
2023-06-20T01:23:14.921Z,5.87
2023-06-20T01:26:33.203Z,6.27
2023-06-20T01:29:13.738Z,5.53
2023-06-20T01:31:45.649Z,4.77
2023-06-20T01:34:21.307Z,5.00
2023-06-20T01:37:00.916Z,4.90
2023-06-20T01:39:33.992Z,6.30
2023-06-20T01:42:04.648Z,6.27
2023-06-20T01:44:34.306Z,5.70
2023-06-20T01:47:04.110Z,6.10
2023-06-20T01:49:32.886Z,7.17
2023-06-20T01:52:01.386Z,5.97
2023-06-20T01:54:31.382Z,6.17
2023-06-20T01:56:59.290Z,6.40
2023-06-20T01:59:28.776Z,6.17
2023-06-20T02:01:58.081Z,6.20
2023-06-20T02:04:26.544Z,6.30
2023-06-20T02:06:54.052Z,6.30
2023-06-20T02:09:21.088Z,6.33
2023-06-20T02:11:48.933Z,5.30
2023-06-20T02:14:16.741Z,5.43
2023-06-20T02:16:44.833Z,5.63
2023-06-20T02:19:11.779Z,7.13
2023-06-20T02:21:39.427Z,5.33
2023-06-20T02:24:07.896Z,5.87
2023-06-20T02:26:40.896Z,5.50
2023-06-20T02:29:09.532Z,5.37
2023-06-20T02:31:48.476Z,5.70
2023-06-20T02:34:19.750Z,5.57
2023-06-20T02:36:48.083Z,5.73
2023-06-20T02:39:15.347Z,6.67
2023-06-20T02:41:43.637Z,6.57
2023-06-20T02:44:10.867Z,5.47
2023-06-20T02:47:04.220Z,4.73
2023-06-20T02:50:14.873Z,10.60
2023-06-20T02:52:49.731Z,6.27
2023-06-20T02:55:32.208Z,5.43
2023-06-20T02:58:02.264Z,5.70
2023-06-20T03:00:30.765Z,5.30
2023-06-20T03:03:07.660Z,6.53
2023-06-20T03:05:40.076Z,11.50
2023-06-20T03:08:08.893Z,7.13
2023-06-20T03:10:36.315Z,7.50
2023-06-20T03:13:05.832Z,7.23
2023-06-20T03:15:33.636Z,8.97
2023-06-20T03:18:01.446Z,7.47
2023-06-20T03:20:29.722Z,8.37
2023-06-20T03:22:56.818Z,7.37
2023-06-20T03:25:23.971Z,7.27
2023-06-20T03:27:51.151Z,8.00
2023-06-20T03:30:18.069Z,7.53
2023-06-20T03:32:45.054Z,7.33
2023-06-20T03:35:11.983Z,8.33
2023-06-20T03:37:39.078Z,6.10
2023-06-20T03:40:07.098Z,6.60
2023-06-20T03:42:34.061Z,6.30
2023-06-20T03:45:00.912Z,6.70
2023-06-20T03:47:27.805Z,7.07
2023-06-20T03:49:54.894Z,7.03
2023-06-20T03:52:21.832Z,5.77
2023-06-20T03:54:48.758Z,7.23
2023-06-20T03:57:15.690Z,6.47
2023-06-20T03:59:43.058Z,6.30
2023-06-20T04:02:09.916Z,6.60
2023-06-20T04:04:38.256Z,5.83
2023-06-20T04:07:05.247Z,7.77
2023-06-20T04:09:32.140Z,6.63
2023-06-20T04:11:59.075Z,8.27
2023-06-20T04:14:26.011Z,6.37
2023-06-20T04:16:53.000Z,6.60
2023-06-20T04:19:20.077Z,7.40
2023-06-20T04:21:46.973Z,6.50
2023-06-20T04:24:13.875Z,6.73
2023-06-20T04:26:40.734Z,7.80
2023-06-20T04:29:07.692Z,7.50
2023-06-20T04:31:34.606Z,7.87
2023-06-20T04:34:01.580Z,7.13
2023-06-20T04:36:31.156Z,6.67
2023-06-20T04:38:58.103Z,7.10
2023-06-20T04:41:25.010Z,6.90
2023-06-20T04:43:51.849Z,6.40
2023-06-20T04:46:18.726Z,6.47
2023-06-20T04:48:47.257Z,7.40
2023-06-20T04:51:15.084Z,7.80
2023-06-20T04:53:41.991Z,6.90
2023-06-20T04:56:08.862Z,7.70
2023-06-20T04:58:35.787Z,7.57
2023-06-20T05:01:02.680Z,6.87
2023-06-20T05:03:29.897Z,7.60
2023-06-20T05:05:56.894Z,10.63
2023-06-20T05:08:23.845Z,6.63
2023-06-20T05:10:50.832Z,8.40
2023-06-20T05:13:17.833Z,7.47
2023-06-20T05:15:44.782Z,8.50
2023-06-20T05:18:11.706Z,8.00
2023-06-20T05:20:38.560Z,7.67
2023-06-20T05:23:05.506Z,9.37
2023-06-20T05:25:32.626Z,8.33
2023-06-20T05:27:59.566Z,6.80
2023-06-20T05:30:26.645Z,7.03
2023-06-20T05:32:53.993Z,6.80
2023-06-20T05:35:20.961Z,7.73
2023-06-20T05:37:50.731Z,8.37
2023-06-20T05:40:18.001Z,7.17
2023-06-20T05:42:44.991Z,7.27
2023-06-20T05:45:12.214Z,6.47
2023-06-20T05:47:39.253Z,7.27
2023-06-20T05:50:07.591Z,6.73
2023-06-20T05:52:36.987Z,6.73
2023-06-20T05:55:05.265Z,6.60
2023-06-20T05:57:32.152Z,6.07
2023-06-20T05:59:59.126Z,6.50
2023-06-20T06:02:26.085Z,6.83
2023-06-20T06:04:53.170Z,6.30
2023-06-20T06:07:20.165Z,5.90
2023-06-20T06:09:48.457Z,6.33
2023-06-20T06:12:15.899Z,5.97
2023-06-20T06:14:43.139Z,7.00
2023-06-20T06:17:10.087Z,6.20
2023-06-20T06:19:37.181Z,6.70
2023-06-20T06:22:04.383Z,5.57
2023-06-20T06:24:31.420Z,5.30
2023-06-20T06:26:58.316Z,5.40
2023-06-20T06:29:26.845Z,6.57
2023-06-20T06:31:55.164Z,5.63
2023-06-20T06:34:22.279Z,8.93
2023-06-20T06:36:50.726Z,5.30
2023-06-20T06:39:19.450Z,5.93
2023-06-20T06:41:49.266Z,4.80
2023-06-20T06:44:16.802Z,4.80
2023-06-20T06:46:43.794Z,4.60
2023-06-20T06:49:10.861Z,5.50
2023-06-20T06:51:39.965Z,5.20
2023-06-20T06:54:07.305Z,4.67
2023-06-20T06:56:34.220Z,4.40
2023-06-20T06:59:02.312Z,3.97
2023-06-20T07:01:30.056Z,4.70
2023-06-20T07:03:57.996Z,4.57
2023-06-20T07:06:25.255Z,3.90
2023-06-20T07:08:53.787Z,3.67
2023-06-20T07:11:20.862Z,3.50
2023-06-20T07:13:47.876Z,3.70
2023-06-20T07:16:15.288Z,4.03
2023-06-20T07:18:42.289Z,3.70
2023-06-20T07:21:09.177Z,3.80
2023-06-20T07:23:36.063Z,3.80
2023-06-20T07:26:02.969Z,3.53
2023-06-20T07:28:30.242Z,3.50
2023-06-20T07:30:57.656Z,3.70
2023-06-20T07:33:24.671Z,3.30
2023-06-20T07:35:51.656Z,3.87
2023-06-20T07:38:19.941Z,3.40
2023-06-20T07:40:47.704Z,5.13
2023-06-20T07:43:14.637Z,5.10
2023-06-20T07:45:41.621Z,3.77
2023-06-20T07:48:08.599Z,3.97
2023-06-20T07:50:35.485Z,4.43
2023-06-20T07:53:04.047Z,5.03
2023-06-20T07:55:31.568Z,5.87
2023-06-20T07:57:59.587Z,4.33
2023-06-20T08:00:27.680Z,7.40
2023-06-20T08:02:54.812Z,3.80
2023-06-20T08:05:22.076Z,5.60
2023-06-20T08:07:50.633Z,4.97
2023-06-20T08:10:18.689Z,3.83
2023-06-20T08:12:45.807Z,3.40
2023-06-20T08:15:12.873Z,2.97
2023-06-20T08:17:39.901Z,3.50
2023-06-20T08:20:10.136Z,3.70
2023-06-20T08:22:37.618Z,4.17
2023-06-20T08:25:05.540Z,3.70
2023-06-20T08:27:33.419Z,3.77
2023-06-20T08:30:00.352Z,3.33
2023-06-20T08:32:27.324Z,3.70
2023-06-20T08:34:55.999Z,3.87
2023-06-20T08:37:24.434Z,3.43
2023-06-20T08:39:51.481Z,3.60
2023-06-20T08:42:18.371Z,3.20
2023-06-20T08:44:56.114Z,5.23
2023-06-20T08:47:24.188Z,3.87
2023-06-20T08:49:51.100Z,4.13
2023-06-20T08:52:29.722Z,5.18
2023-06-20T08:54:57.440Z,5.65
2023-06-20T08:57:24.953Z,3.50
2023-06-20T08:59:53.964Z,3.58
2023-06-20T09:02:22.955Z,3.78
2023-06-20T09:05:05.415Z,4.55
2023-06-20T09:07:40.387Z,4.40
2023-06-20T09:10:09.677Z,5.35
2023-06-20T09:12:54.302Z,6.15
2023-06-20T09:15:24.038Z,5.32
2023-06-20T09:17:52.957Z,3.13
2023-06-20T09:20:21.243Z,3.05
2023-06-20T09:22:48.250Z,2.65
2023-06-20T09:25:22.539Z,3.15
2023-06-20T09:27:49.937Z,3.55
2023-06-20T09:30:16.859Z,3.90
2023-06-20T09:32:44.796Z,4.03
2023-06-20T09:35:15.077Z,3.38
2023-06-20T09:37:43.410Z,4.65
2023-06-20T09:40:15.772Z,4.68
2023-06-20T09:42:45.606Z,3.28
2023-06-20T09:45:15.775Z,4.00
2023-06-20T09:47:44.916Z,3.50
2023-06-20T09:50:17.259Z,4.97
2023-06-20T09:52:55.027Z,6.30
2023-06-20T09:55:24.475Z,3.65
2023-06-20T09:57:54.843Z,6.05
2023-06-20T10:00:25.387Z,2.47
2023-06-20T10:02:54.654Z,2.65
2023-06-20T10:05:22.630Z,3.30
2023-06-20T10:07:50.614Z,3.92
2023-06-20T10:10:18.790Z,3.65
2023-06-20T10:12:47.876Z,3.25
2023-06-20T10:15:16.087Z,4.40
2023-06-20T10:17:47.618Z,3.13
2023-06-20T10:20:30.089Z,4.28
2023-06-20T10:23:01.871Z,2.88
2023-06-20T10:25:29.139Z,4.60
2023-06-20T10:28:03.568Z,4.35
2023-06-20T10:30:51.666Z,5.57
2023-06-20T10:33:32.381Z,3.53
2023-06-20T10:36:13.780Z,3.85
2023-06-20T10:39:00.826Z,3.08
2023-06-20T10:41:29.413Z,5.18
2023-06-20T10:44:01.238Z,3.53
2023-06-20T10:46:49.019Z,3.08
2023-06-20T10:49:16.054Z,4.68
2023-06-20T10:51:46.980Z,4.28
2023-06-20T10:54:15.203Z,2.75
2023-06-20T10:56:44.499Z,3.08
2023-06-20T10:59:16.298Z,3.50
2023-06-20T11:01:43.567Z,3.30
2023-06-20T11:04:12.676Z,4.35
2023-06-20T11:06:40.753Z,2.85
2023-06-20T11:09:20.971Z,4.53
2023-06-20T11:11:49.426Z,4.35
2023-06-20T11:14:20.640Z,3.65
2023-06-20T11:16:49.968Z,3.78
2023-06-20T11:21:55.339Z,5.25
2023-06-20T11:24:22.532Z,3.25
2023-06-20T11:26:49.597Z,3.25
2023-06-20T11:29:17.001Z,2.67
2023-06-20T11:31:44.825Z,4.85
2023-06-20T11:34:15.505Z,2.50
2023-06-20T11:36:42.495Z,4.38
2023-06-20T11:39:14.618Z,3.50
2023-06-20T11:41:41.860Z,4.68
2023-06-20T11:44:25.364Z,3.92
2023-06-20T11:46:52.505Z,5.38
2023-06-20T11:49:32.909Z,3.63
2023-06-20T11:52:00.579Z,5.00
2023-06-20T11:54:27.627Z,4.93
2023-06-20T11:56:55.531Z,4.75
2023-06-20T11:59:26.053Z,5.43
2023-06-20T12:01:53.948Z,4.88
2023-06-20T12:04:22.444Z,5.82
2023-06-20T12:06:54.348Z,7.97
2023-06-20T12:09:24.731Z,5.68
2023-06-20T12:11:57.242Z,6.80
2023-06-20T12:14:26.662Z,4.63
2023-06-20T12:16:53.922Z,4.45
2023-06-20T12:19:21.287Z,5.07
2023-06-20T12:21:48.933Z,4.90
2023-06-20T12:24:17.323Z,3.97
2023-06-20T12:26:47.923Z,4.63
2023-06-20T12:29:15.005Z,7.18
2023-06-20T12:31:41.890Z,3.58
2023-06-20T12:34:09.153Z,5.70
2023-06-20T12:36:36.223Z,3.83
2023-06-20T12:39:04.606Z,4.80
2023-06-20T12:41:36.259Z,6.18
2023-06-20T12:44:04.365Z,4.80
2023-06-20T12:46:31.602Z,6.38
2023-06-20T12:48:59.550Z,6.22
2023-06-20T12:51:26.619Z,3.40
2023-06-20T12:53:53.557Z,7.53
2023-06-20T12:56:21.105Z,4.18
2023-06-20T12:58:48.040Z,4.82
2023-06-20T13:01:14.936Z,4.10
2023-06-20T13:03:41.972Z,4.35
2023-06-20T13:06:11.375Z,5.82
2023-06-20T13:08:40.562Z,3.88
2023-06-20T13:11:07.625Z,6.38
2023-06-20T13:13:34.631Z,3.28
2023-06-20T13:16:01.743Z,4.30
2023-06-20T13:18:28.910Z,4.28
2023-06-20T13:20:55.883Z,5.57
2023-06-20T13:23:23.008Z,4.47
2023-06-20T13:25:49.922Z,8.63
2023-06-20T13:28:16.827Z,8.30
2023-06-20T13:30:44.653Z,8.35
2023-06-20T13:33:11.594Z,4.10
2023-06-20T13:35:39.162Z,4.70
2023-06-20T13:38:07.767Z,6.07
2023-06-20T13:40:35.017Z,8.68
2023-06-20T13:43:06.252Z,5.28
2023-06-20T13:45:34.476Z,3.90
2023-06-20T13:48:02.386Z,3.50
2023-06-20T13:50:29.580Z,4.43
2023-06-20T13:52:56.708Z,8.75
2023-06-20T13:55:23.667Z,5.18
2023-06-20T13:57:51.499Z,6.03
2023-06-20T14:00:18.489Z,5.68
2023-06-20T14:02:45.773Z,5.00
2023-06-20T14:05:15.891Z,5.18
2023-06-20T14:07:45.017Z,5.07
2023-06-20T14:10:12.141Z,7.75
2023-06-20T14:12:39.009Z,4.82
2023-06-20T14:15:07.050Z,8.95
2023-06-20T14:17:34.796Z,4.57
2023-06-20T14:20:01.771Z,4.35
2023-06-20T14:22:28.633Z,7.60
2023-06-20T14:24:55.522Z,5.50
2023-06-20T14:27:24.513Z,8.07
2023-06-20T14:29:51.704Z,7.15
2023-06-20T14:32:19.221Z,6.72
2023-06-20T14:34:46.271Z,6.43
2023-06-20T14:37:13.735Z,6.10
2023-06-20T14:39:41.981Z,4.40
2023-06-20T14:42:08.952Z,7.40
2023-06-20T14:44:35.888Z,4.88
2023-06-20T14:47:03.052Z,5.05
2023-06-20T14:49:31.172Z,9.02
2023-06-20T14:51:58.044Z,5.90
2023-06-20T14:54:25.292Z,3.88
2023-06-20T14:56:52.288Z,7.13
2023-06-20T14:59:19.240Z,4.20
2023-06-20T15:01:46.252Z,5.03
2023-06-20T15:04:15.157Z,5.82
2023-06-20T15:06:43.460Z,4.30
2023-06-20T15:09:10.602Z,6.07
2023-06-20T15:11:37.480Z,3.90
2023-06-20T15:14:04.424Z,5.93
2023-06-20T15:16:31.417Z,5.97
2023-06-20T15:18:58.609Z,7.53
2023-06-20T15:21:26.076Z,4.28
2023-06-20T15:23:53.358Z,5.15
2023-06-20T15:26:20.835Z,5.28
2023-06-20T15:28:48.076Z,4.90
2023-06-20T15:31:18.417Z,6.90
2023-06-20T15:33:45.346Z,7.32
2023-06-20T15:36:12.287Z,4.68
2023-06-20T15:38:39.229Z,4.88
2023-06-20T15:41:06.260Z,5.03
2023-06-20T15:43:36.738Z,4.35
2023-06-20T15:46:04.850Z,6.10
2023-06-20T15:48:31.900Z,5.55
2023-06-20T15:50:58.961Z,6.93
2023-06-20T15:53:26.205Z,6.35
2023-06-20T15:55:53.166Z,4.22
2023-06-20T15:58:20.067Z,6.55
2023-06-20T16:00:46.951Z,6.97
2023-06-20T16:03:13.989Z,4.32
2023-06-20T16:05:40.971Z,5.93
2023-06-20T16:08:07.817Z,4.32
2023-06-20T16:10:34.769Z,5.25
2023-06-20T16:13:02.241Z,4.93
2023-06-20T16:15:29.180Z,6.28
2023-06-20T16:17:56.103Z,4.88
2023-06-20T16:20:23.011Z,6.82
2023-06-20T16:22:50.441Z,5.90
2023-06-20T16:25:17.489Z,6.38
2023-06-20T16:27:45.026Z,5.45
2023-06-20T16:30:13.053Z,5.07
2023-06-20T16:32:40.146Z,4.97
2023-06-20T16:35:07.466Z,6.53
2023-06-20T16:37:34.331Z,5.55
2023-06-20T16:40:08.236Z,4.22
2023-06-20T16:42:35.400Z,5.30
2023-06-20T16:45:10.720Z,4.93
2023-06-20T16:47:39.944Z,7.85
2023-06-20T16:50:07.961Z,6.55
2023-06-20T16:52:34.941Z,7.20
2023-06-20T16:55:01.864Z,6.30
2023-06-20T16:57:28.719Z,6.40
2023-06-20T16:59:55.684Z,4.78
2023-06-20T17:02:25.584Z,5.35
2023-06-20T17:04:53.117Z,4.68
2023-06-20T17:07:24.535Z,6.65
2023-06-20T17:09:53.649Z,6.75
2023-06-20T17:12:20.571Z,8.95
2023-06-20T17:14:47.485Z,7.50
2023-06-20T17:17:14.489Z,6.88
2023-06-20T17:19:41.446Z,5.80
2023-06-20T17:22:11.511Z,7.57
2023-06-20T17:24:43.651Z,5.85
2023-06-20T17:27:13.739Z,9.95
2023-06-20T17:29:42.023Z,5.82
2023-06-20T17:32:09.594Z,8.38
2023-06-20T17:34:36.626Z,6.32
2023-06-20T17:37:04.176Z,8.23
2023-06-20T17:39:31.063Z,6.53
2023-06-20T17:41:58.137Z,5.22
2023-06-20T17:44:25.048Z,7.95
2023-06-20T17:46:56.492Z,7.30
2023-06-20T17:49:26.693Z,7.72
2023-06-20T17:51:53.560Z,7.70
2023-06-20T17:54:21.522Z,6.88
2023-06-20T17:56:49.744Z,5.47
2023-06-20T17:59:17.036Z,4.97
2023-06-20T18:01:44.014Z,6.15
2023-06-20T18:04:12.783Z,6.32
2023-06-20T18:06:40.844Z,8.60
2023-06-20T18:09:08.220Z,5.80
2023-06-20T18:11:35.189Z,6.93
2023-06-20T18:14:02.096Z,5.78
2023-06-20T18:16:29.152Z,6.03
2023-06-20T18:18:56.098Z,6.90
2023-06-20T18:21:23.024Z,6.65
2023-06-20T18:23:50.064Z,6.00
2023-06-20T18:26:17.091Z,6.22
2023-06-20T18:28:43.958Z,8.60
2023-06-20T18:31:11.002Z,6.85
2023-06-20T18:33:39.728Z,4.60
2023-06-20T18:36:08.075Z,6.60
2023-06-20T18:38:35.134Z,6.85
2023-06-20T18:41:02.054Z,7.65
2023-06-20T18:43:29.055Z,7.00
2023-06-20T18:45:56.733Z,5.63
2023-06-20T18:48:23.641Z,7.80
2023-06-20T18:50:53.127Z,7.57
2023-06-20T18:53:20.740Z,7.60
2023-06-20T18:55:47.769Z,6.68
2023-06-20T18:58:15.747Z,8.35
2023-06-20T19:00:42.694Z,5.13
2023-06-20T19:03:13.359Z,6.05
2023-06-20T19:05:40.885Z,5.72
2023-06-20T19:08:08.180Z,5.13
2023-06-20T19:10:35.232Z,5.20
2023-06-20T19:13:03.247Z,5.90
2023-06-20T19:15:30.788Z,5.68
2023-06-20T19:17:58.157Z,5.25
2023-06-20T19:20:26.640Z,6.75
2023-06-20T19:22:56.094Z,6.60
2023-06-20T19:25:23.227Z,6.63
2023-06-20T19:27:50.302Z,6.05
2023-06-20T19:30:20.749Z,8.82
2023-06-20T19:32:48.689Z,5.60
2023-06-20T19:35:16.655Z,7.47
2023-06-20T19:37:44.229Z,8.93
2023-06-20T19:40:11.576Z,5.88
2023-06-20T19:42:38.622Z,7.32
2023-06-20T19:45:06.591Z,8.27
2023-06-20T19:47:33.508Z,5.72
2023-06-20T19:50:00.403Z,8.05
2023-06-20T19:52:27.440Z,6.95
2023-06-20T19:54:54.376Z,5.63
2023-06-20T19:57:21.267Z,5.35
2023-06-20T19:59:48.660Z,8.20
2023-06-20T20:02:24.239Z,6.30
2023-06-20T20:04:51.311Z,9.50
2023-06-20T20:07:18.470Z,9.07
2023-06-20T20:09:45.687Z,13.73
2023-06-20T20:12:13.525Z,20.95
2023-06-20T20:14:40.746Z,13.65
2023-06-20T20:17:08.313Z,9.35
2023-06-20T20:19:35.241Z,10.63
2023-06-20T20:22:02.145Z,10.03
2023-06-20T20:24:29.052Z,8.07
2023-06-20T20:26:55.989Z,10.57
2023-06-20T20:29:23.658Z,11.80
2023-06-20T20:31:51.074Z,9.67
2023-06-20T20:34:18.641Z,12.60
2023-06-20T20:36:45.607Z,8.73
2023-06-20T20:39:15.396Z,9.00
2023-06-20T20:41:43.073Z,6.87
2023-06-20T20:44:10.609Z,11.10
2023-06-20T20:46:37.533Z,8.77
2023-06-20T20:49:04.789Z,11.10
2023-06-20T20:51:33.599Z,10.43
2023-06-20T20:54:00.940Z,8.97
2023-06-20T20:56:27.855Z,9.57
2023-06-20T20:58:55.277Z,7.13
2023-06-20T21:01:22.371Z,7.10
2023-06-20T21:03:50.112Z,8.17
2023-06-20T21:06:17.377Z,7.97
2023-06-20T21:08:44.342Z,8.83
2023-06-20T21:11:11.643Z,12.33
2023-06-20T21:13:38.574Z,7.87
2023-06-20T21:16:05.464Z,11.40
2023-06-20T21:18:32.389Z,13.07
2023-06-20T21:20:59.393Z,9.80
2023-06-20T21:23:26.490Z,9.07
2023-06-20T21:25:53.480Z,9.97
2023-06-20T21:28:20.409Z,11.40
2023-06-20T21:30:47.355Z,8.80
2023-06-20T21:33:14.303Z,6.97
2023-06-20T21:35:42.840Z,13.17
2023-06-20T21:38:11.161Z,9.97
2023-06-20T21:40:38.087Z,7.93
2023-06-20T21:43:05.326Z,8.90
2023-06-20T21:45:32.215Z,7.73
2023-06-20T21:47:59.145Z,7.80
2023-06-20T21:50:26.496Z,9.40
2023-06-20T21:52:53.758Z,10.17
2023-06-20T21:55:20.729Z,10.93
2023-06-20T21:57:47.904Z,9.23
2023-06-20T22:00:16.010Z,11.43
2023-06-20T22:02:43.321Z,9.90
2023-06-20T22:05:10.759Z,11.67
2023-06-20T22:07:37.873Z,9.30
2023-06-20T22:10:06.528Z,9.73
2023-06-20T22:12:33.986Z,11.30
2023-06-20T22:15:02.337Z,12.43
2023-06-20T22:17:30.889Z,8.20
2023-06-20T22:19:57.917Z,8.83
2023-06-20T22:22:24.868Z,9.10
2023-06-20T22:24:51.736Z,12.53
2023-06-20T22:27:18.766Z,8.13
2023-06-20T22:29:45.663Z,7.83
2023-06-20T22:32:12.630Z,9.53
2023-06-20T22:34:39.515Z,10.07
2023-06-20T22:37:06.592Z,8.40
2023-06-20T22:39:33.452Z,9.67
2023-06-20T22:42:00.482Z,9.37
2023-06-20T22:44:28.354Z,9.23
2023-06-20T22:46:58.425Z,11.63
2023-06-20T22:49:26.104Z,10.40
2023-06-20T22:51:53.622Z,10.83
2023-06-20T22:54:25.119Z,12.10
2023-06-20T22:56:53.075Z,12.20
2023-06-20T22:59:21.021Z,10.77
2023-06-20T23:01:48.616Z,8.80
2023-06-20T23:04:15.611Z,9.07
2023-06-20T23:06:42.515Z,12.27
2023-06-20T23:09:09.382Z,13.13
2023-06-20T23:11:36.978Z,8.93
2023-06-20T23:14:04.729Z,11.97
2023-06-20T23:16:32.497Z,9.30
2023-06-20T23:18:59.603Z,10.90
2023-06-20T23:21:26.921Z,8.33
2023-06-20T23:23:54.061Z,9.10
2023-06-20T23:26:22.227Z,9.40
2023-06-20T23:28:51.072Z,11.17
2023-06-20T23:31:19.262Z,11.80
2023-06-20T23:33:46.363Z,12.03
2023-06-20T23:36:16.940Z,9.47
2023-06-20T23:38:44.891Z,10.10
2023-06-20T23:41:11.825Z,9.50
2023-06-20T23:43:38.680Z,10.90
2023-06-20T23:46:43.035Z,10.70
2023-06-20T23:50:06.355Z,10.20
2023-06-20T23:52:33.717Z,10.80
2023-06-20T23:55:01.371Z,11.97
2023-06-20T23:57:32.563Z,11.30
